Hlavní strana
METAR-TAF:

METAR-TAF

Letiště :

Mosjøen, Norsko

zeměpisná šířka: 65-48N, zeměpisná délka: 013-08E, výška: 70 m

Aktuální stav počasí

Zpráva byla vytvořena před 13 minutami, v 05:50 UTC
Jižní vítr 4 kt, proměnlivý mezi jihovýchodním a západojihozápadním
Teplota -1°C
Vlhkost vzduchu 93%
Tlak 1036 hPa
Viditelnost 10 km a více
Zataženo ve výšce 700 ft
slabé sněžení

METAR: ENMS 210550Z 19004KT 140V240 9999 -SN OVC007 M01/M02 Q1036 RMK WIND 412FT 20004KT 160V260

Čas: 07:03 (06:03 UTC)


TAF: chybějící

Stav a předpovědi počasí z více než 4 000 letišť (zprávy METAR a TAF).

Červené a žluté tečky na mapě představují dostupné meteorologické stanice.

Když kurzor umístíte na tečku, zobrazí se název stanice.

Pak kliknutím zobrazíte stav a předpověď počasí.

Chcete-li změnit mapu, kliknutím na zelené tlačítko se znaménkem +mapu přiblížíte, kliknutím na zelené tlačítko se znaménkem – mapu oddálíte a kliknutím na zelené šipky přejdete na sousední mapy.


METAR-TAF: